sensor_id;sensor_type;location;lat;lon;timestamp;P1;durP1;ratioP1;P2;durP2;ratioP2
61483;SDS011;47349;55.640;37.692;2023-09-30T10:46:33;12.35;;;7.35;;
61483;SDS011;47349;55.640;37.692;2023-09-30T10:59:23;9.45;;;5.10;;
61483;SDS011;47349;55.640;37.692;2023-09-30T11:02:53;13.60;;;6.38;;
61483;SDS011;47349;55.640;37.692;2023-09-30T11:06:31;12.55;;;8.13;;
61483;SDS011;47349;55.640;37.692;2023-09-30T11:09:34;11.82;;;6.88;;
61483;SDS011;47349;55.640;37.692;2023-09-30T11:12:33;11.73;;;7.53;;
61483;SDS011;47349;55.640;37.692;2023-09-30T11:15:51;15.32;;;8.40;;
61483;SDS011;47349;55.640;37.692;2023-09-30T11:18:53;14.15;;;7.28;;
61483;SDS011;47349;55.640;37.692;2023-09-30T11:22:51;13.18;;;7.82;;
61483;SDS011;47349;55.640;37.692;2023-09-30T11:26:35;10.93;;;7.13;;
61483;SDS011;47349;55.640;37.692;2023-09-30T11:29:49;14.98;;;6.95;;
61483;SDS011;47349;55.640;37.692;2023-09-30T11:33:50;13.95;;;8.95;;
61483;SDS011;47349;55.640;37.692;2023-09-30T11:37:09;14.65;;;7.40;;
61483;SDS011;47349;55.640;37.692;2023-09-30T11:41:09;15.32;;;8.40;;
61483;SDS011;47349;55.640;37.692;2023-09-30T11:44:25;12.20;;;7.85;;
61483;SDS011;47349;55.640;37.692;2023-09-30T11:48:19;11.35;;;6.60;;
61483;SDS011;47349;55.640;37.692;2023-09-30T11:51:28;10.32;;;7.25;;
61483;SDS011;47349;55.640;37.692;2023-09-30T11:55:09;8.73;;;5.63;;
61483;SDS011;47349;55.640;37.692;2023-09-30T11:58:13;11.55;;;6.35;;
61483;SDS011;47349;55.640;37.692;2023-09-30T12:01:14;11.93;;;7.53;;
61483;SDS011;47349;55.640;37.692;2023-09-30T12:04:29;12.57;;;7.80;;
61483;SDS011;47349;55.640;37.692;2023-09-30T12:07:53;11.73;;;7.55;;
61483;SDS011;47349;55.640;37.692;2023-09-30T12:11:27;10.10;;;7.20;;
61483;SDS011;47349;55.640;37.692;2023-09-30T12:14:26;15.95;;;8.40;;
61483;SDS011;47349;55.640;37.692;2023-09-30T12:21:17;10.57;;;7.60;;
61483;SDS011;47349;55.640;37.692;2023-09-30T12:25:06;14.40;;;7.57;;
61483;SDS011;47349;55.640;37.692;2023-09-30T12:28:03;12.20;;;7.53;;
61483;SDS011;47349;55.640;37.692;2023-09-30T12:30:51;10.85;;;8.52;;
61483;SDS011;47349;55.640;37.692;2023-09-30T12:33:27;9.77;;;6.25;;
61483;SDS011;47349;55.640;37.692;2023-09-30T12:36:36;12.40;;;6.82;;
61483;SDS011;47349;55.640;37.692;2023-09-30T12:39:24;13.52;;;8.27;;
61483;SDS011;47349;55.640;37.692;2023-09-30T12:42:23;8.50;;;6.20;;
61483;SDS011;47349;55.640;37.692;2023-09-30T12:45:25;14.10;;;7.95;;
61483;SDS011;47349;55.640;37.692;2023-09-30T12:47:56;12.60;;;8.23;;
61483;SDS011;47349;55.640;37.692;2023-09-30T12:50:44;14.95;;;7.38;;
61483;SDS011;47349;55.640;37.692;2023-09-30T12:53:46;9.88;;;6.82;;
61483;SDS011;47349;55.640;37.692;2023-09-30T12:56:36;11.43;;;7.25;;
61483;SDS011;47349;55.640;37.692;2023-09-30T12:59:31;13.13;;;7.07;;
61483;SDS011;47349;55.640;37.692;2023-09-30T13:02:11;15.63;;;7.80;;
61483;SDS011;47349;55.640;37.692;2023-09-30T13:05:01;13.85;;;7.22;;
61483;SDS011;47349;55.640;37.692;2023-09-30T13:07:55;13.32;;;7.80;;
61483;SDS011;47349;55.640;37.692;2023-09-30T13:10:42;12.20;;;7.50;;
61483;SDS011;47349;55.640;37.692;2023-09-30T13:13:56;10.18;;;7.60;;
61483;SDS011;47349;55.640;37.692;2023-09-30T13:16:52;12.05;;;7.25;;
61483;SDS011;47349;55.640;37.692;2023-09-30T13:19:37;10.32;;;6.13;;
61483;SDS011;47349;55.640;37.692;2023-09-30T13:22:15;13.55;;;7.80;;
61483;SDS011;47349;55.640;37.692;2023-09-30T13:24:51;15.38;;;8.10;;
61483;SDS011;47349;55.640;37.692;2023-09-30T13:27:23;12.55;;;7.82;;
61483;SDS011;47349;55.640;37.692;2023-09-30T13:29:51;11.75;;;8.48;;
61483;SDS011;47349;55.640;37.692;2023-09-30T13:32:35;11.77;;;7.75;;
61483;SDS011;47349;55.640;37.692;2023-09-30T13:35:06;17.48;;;7.80;;
61483;SDS011;47349;55.640;37.692;2023-09-30T13:37:38;11.55;;;7.78;;
61483;SDS011;47349;55.640;37.692;2023-09-30T13:40:40;12.63;;;7.38;;
61483;SDS011;47349;55.640;37.692;2023-09-30T13:43:38;12.93;;;8.52;;
61483;SDS011;47349;55.640;37.692;2023-09-30T13:46:18;10.13;;;7.32;;
61483;SDS011;47349;55.640;37.692;2023-09-30T13:48:54;12.88;;;7.47;;
61483;SDS011;47349;55.640;37.692;2023-09-30T13:51:46;12.80;;;7.40;;
61483;SDS011;47349;55.640;37.692;2023-09-30T13:54:24;11.27;;;7.38;;
61483;SDS011;47349;55.640;37.692;2023-09-30T13:56:52;12.68;;;7.97;;
61483;SDS011;47349;55.640;37.692;2023-09-30T13:59:24;14.32;;;8.18;;
61483;SDS011;47349;55.640;37.692;2023-09-30T14:01:57;15.25;;;8.05;;
61483;SDS011;47349;55.640;37.692;2023-09-30T14:04:43;10.95;;;6.75;;
61483;SDS011;47349;55.640;37.692;2023-09-30T14:07:30;13.93;;;8.15;;
61483;SDS011;47349;55.640;37.692;2023-09-30T14:10:01;12.82;;;7.85;;
61483;SDS011;47349;55.640;37.692;2023-09-30T14:12:34;15.73;;;8.27;;
61483;SDS011;47349;55.640;37.692;2023-09-30T14:15:07;13.48;;;8.35;;
61483;SDS011;47349;55.640;37.692;2023-09-30T14:18:09;13.07;;;7.75;;
61483;SDS011;47349;55.640;37.692;2023-09-30T14:20:56;14.27;;;8.23;;
61483;SDS011;47349;55.640;37.692;2023-09-30T14:23:47;14.68;;;8.85;;
61483;SDS011;47349;55.640;37.692;2023-09-30T14:26:31;12.15;;;8.05;;
61483;SDS011;47349;55.640;37.692;2023-09-30T14:29:07;11.88;;;7.68;;
61483;SDS011;47349;55.640;37.692;2023-09-30T14:31:39;12.88;;;8.35;;
61483;SDS011;47349;55.640;37.692;2023-09-30T14:34:17;15.40;;;7.93;;
61483;SDS011;47349;55.640;37.692;2023-09-30T14:37:00;13.20;;;8.25;;
61483;SDS011;47349;55.640;37.692;2023-09-30T14:39:30;13.93;;;7.47;;
61483;SDS011;47349;55.640;37.692;2023-09-30T14:42:02;12.38;;;8.73;;
61483;SDS011;47349;55.640;37.692;2023-09-30T14:44:48;15.35;;;8.98;;
61483;SDS011;47349;55.640;37.692;2023-09-30T14:47:29;13.70;;;8.90;;
61483;SDS011;47349;55.640;37.692;2023-09-30T14:53:21;18.42;;;9.75;;
61483;SDS011;47349;55.640;37.692;2023-09-30T14:56:02;20.17;;;10.05;;
61483;SDS011;47349;55.640;37.692;2023-09-30T15:01:34;14.48;;;9.80;;
61483;SDS011;47349;55.640;37.692;2023-09-30T15:08:35;14.18;;;9.85;;
61483;SDS011;47349;55.640;37.692;2023-09-30T15:14:54;14.32;;;9.85;;
61483;SDS011;47349;55.640;37.692;2023-09-30T15:17:30;13.75;;;9.55;;
61483;SDS011;47349;55.640;37.692;2023-09-30T15:20:09;13.88;;;9.85;;
61483;SDS011;47349;55.640;37.692;2023-09-30T15:26:18;16.50;;;11.45;;
61483;SDS011;47349;55.640;37.692;2023-09-30T15:29:13;20.20;;;11.10;;
61483;SDS011;47349;55.640;37.692;2023-09-30T15:32:02;22.27;;;11.98;;
61483;SDS011;47349;55.640;37.692;2023-09-30T15:34:40;20.88;;;11.68;;
61483;SDS011;47349;55.640;37.692;2023-09-30T15:37:14;22.30;;;11.63;;
61483;SDS011;47349;55.640;37.692;2023-09-30T15:39:56;22.80;;;12.82;;
61483;SDS011;47349;55.640;37.692;2023-09-30T15:42:28;23.80;;;13.50;;
